Time;durP1;ratioP1;P1;durP2;ratioP2;P2;SDS_P1;SDS_P2;PMS_P1;PMS_P2;Temp;Humidity;BMP_temperature;BMP_pressure;BME280_temperature;BME280_humidity;BME280_pressure;Samples;Min_cycle;Max_cycle;Signal;HPM_P1;HPM_P2
2022/08/04 00:00:39;;;;;;;7.63;3.60;;;;;;;22.47;71.24;101235.94;4973468;28;20031;-50
2022/08/04 00:03:18;;;;;;;11.25;3.67;;;;;;;22.44;71.08;101230.97;4956375;28;20500;-50
2022/08/04 00:06:00;;;;;;;13.80;3.97;;;;;;;22.41;71.42;101220.50;4954509;28;20034;-51
2022/08/04 00:08:31;;;;;;;6.47;3.40;;;;;;;22.44;71.10;101230.97;4973079;28;20494;-51
2022/08/04 00:10:58;;;;;;;16.08;3.95;;;;;;;22.43;71.05;101228.47;4973015;28;20081;-50
2022/08/04 00:13:26;;;;;;;13.02;3.97;;;;;;;22.40;71.81;101235.28;4973728;28;20158;-50
2022/08/04 00:15:52;;;;;;;;;;;;;;;22.39;72.13;101228.16;4973259;28;20027;-50
2022/08/04 00:18:22;;;;;;;15.05;4.00;;;;;;;22.37;71.81;101224.81;4955803;28;20365;-47
2022/08/04 00:20:48;;;;;;;12.50;3.47;;;;;;;22.36;71.90;101228.66;4972890;28;20628;-50
2022/08/04 00:23:13;;;;;;;11.85;3.83;;;;;;;22.37;72.00;101224.00;4956487;28;20114;-51
2022/08/04 00:25:40;;;;;;;8.13;3.33;;;;;;;22.36;72.00;101234.16;4955074;28;20117;-49
2022/08/04 00:28:06;;;;;;;15.65;4.20;;;;;;;22.35;71.84;101221.50;4973095;28;20114;-50
2022/08/04 00:30:31;;;;;;;16.15;3.50;;;;;;;22.32;72.34;101232.97;4972824;28;20541;-50
2022/08/04 00:32:57;;;;;;;11.27;3.88;;;;;;;22.29;72.33;101233.47;4973358;28;20045;-49
2022/08/04 00:35:23;;;;;;;11.55;3.70;;;;;;;22.30;72.19;101226.91;4954680;28;20047;-49
2022/08/04 00:37:48;;;;;;;11.13;3.75;;;;;;;22.28;72.18;101218.13;4972173;28;20031;-49
2022/08/04 00:40:30;;;;;;;9.90;3.80;;;;;;;22.27;72.71;101216.44;4972590;28;20101;-49
2022/08/04 00:43:12;;;;;;;9.27;3.30;;;;;;;22.25;72.83;101210.38;4955792;28;20037;-49
2022/08/04 00:45:49;;;;;;;12.68;3.78;;;;;;;22.24;72.66;101214.22;4954092;28;20098;-49
2022/08/04 00:48:19;;;;;;;;;;;;;;;22.23;72.38;101224.34;4954087;29;20038;-49
2022/08/04 00:50:54;;;;;;;9.68;4.07;;;;;;;22.22;72.36;101221.84;4936430;29;19969;-48
2022/08/04 00:53:34;;;;;;;7.13;3.30;;;;;;;22.21;72.03;101225.69;4953476;29;20027;-52
2022/08/04 00:56:06;;;;;;;11.25;3.50;;;;;;;22.18;72.65;101220.66;4954697;28;20136;-49
2022/08/04 00:58:49;;;;;;;12.55;3.95;;;;;;;22.17;73.08;101219.00;4972802;28;20133;-53
2022/08/04 01:01:30;;;;;;;14.77;4.38;;;;;;;22.14;72.96;101217.56;4971691;28;20035;-49
2022/08/04 01:04:16;;;;;;;8.88;3.78;;;;;;;22.12;72.71;101214.28;4955013;28;20027;-51
2022/08/04 01:07:09;;;;;;;8.70;3.88;;;;;;;22.14;72.85;101217.56;4954420;28;20513;-48
2022/08/04 01:09:53;;;;;;;8.32;3.72;;;;;;;22.07;72.58;101208.72;4953963;28;20086;-51
2022/08/04 01:12:27;;;;;;;14.10;3.78;;;;;;;22.00;73.18;101203.38;4965718;28;20041;-52
2022/08/04 01:15:01;;;;;;;12.25;3.67;;;;;;;21.96;73.47;101207.72;4972360;28;20101;-50
2022/08/04 01:17:38;;;;;;;13.02;4.10;;;;;;;21.94;73.43;101204.41;4972319;28;20027;-51
2022/08/04 01:20:06;;;;;;;11.88;4.38;;;;;;;21.95;73.68;101214.25;4954839;28;20031;-51
2022/08/04 01:22:31;;;;;;;12.00;4.07;;;;;;;21.92;73.49;101201.06;4971582;28;20490;-51
2022/08/04 01:25:18;;;;;;;12.40;3.95;;;;;;;21.91;73.40;101202.16;4971650;28;20030;-52
2022/08/04 01:28:02;;;;;;;10.03;4.30;;;;;;;21.89;73.83;101198.81;4954427;28;20068;-52
2022/08/04 01:30:29;;;;;;;12.05;4.32;;;;;;;21.87;73.96;101203.72;4971149;28;20282;-50
2022/08/04 01:33:03;;;;;;;14.50;3.90;;;;;;;21.88;73.66;101199.88;4970584;28;20359;-51
2022/08/04 01:35:55;;;;;;;11.27;3.75;;;;;;;21.85;73.36;101203.13;4971387;28;20397;-51
2022/08/04 01:38:39;;;;;;;14.23;4.25;;;;;;;21.79;74.03;101193.16;4971757;28;20442;-51
2022/08/04 01:41:09;;;;;;;15.23;4.35;;;;;;;21.74;74.11;101199.38;4971006;28;20027;-50
2022/08/04 01:43:39;;;;;;;10.00;3.67;;;;;;;21.67;74.07;101191.34;4953959;28;20030;-49
2022/08/04 01:46:05;;;;;;;11.25;3.70;;;;;;;21.67;74.45;101193.25;4971573;28;20023;-50
2022/08/04 01:48:31;;;;;;;11.43;4.10;;;;;;;21.63;74.84;101192.91;4971591;28;20039;-48
2022/08/04 01:51:05;;;;;;;10.15;3.40;;;;;;;21.62;75.10;101184.94;4954321;28;20367;-49
2022/08/04 01:53:36;;;;;;;13.90;3.80;;;;;;;21.61;74.87;101192.31;4970744;28;20035;-52
2022/08/04 01:56:04;;;;;;;18.50;3.80;;;;;;;21.55;74.98;101201.53;4972016;28;20041;-49
2022/08/04 01:58:31;;;;;;;11.50;3.78;;;;;;;21.48;75.25;101201.69;4970980;28;20066;-49
2022/08/04 02:00:57;;;;;;;;;;;;;;;21.48;74.96;101195.38;4971875;28;20027;-48
2022/08/04 02:03:22;;;;;;;9.90;3.50;;;;;;;21.50;74.89;101190.47;4971181;28;20408;-48
2022/08/04 02:05:49;;;;;;;11.27;3.63;;;;;;;21.46;75.22;101186.59;4972132;28;20095;-49
2022/08/04 02:08:20;;;;;;;13.30;3.58;;;;;;;21.46;75.70;101178.38;4970957;28;20469;-49
2022/08/04 02:11:02;;;;;;;9.57;3.60;;;;;;;21.45;75.32;101169.31;4970865;28;20041;-51
2022/08/04 02:13:45;;;;;;;14.07;3.45;;;;;;;21.42;75.37;101172.53;4970309;28;20035;-46
2022/08/04 02:16:47;;;;;;;19.20;4.30;;;;;;;21.40;75.70;101171.94;4971294;28;20034;-47
2022/08/04 02:19:44;;;;;;;9.15;4.03;;;;;;;21.38;75.82;101179.59;4951477;28;20113;-46
2022/08/04 02:22:16;;;;;;;9.70;3.30;;;;;;;21.38;75.71;101176.00;4953727;28;20042;-47
2022/08/04 02:24:45;;;;;;;10.15;4.13;;;;;;;21.40;75.55;101171.13;4966773;28;20494;-51
2022/08/04 02:27:13;;;;;;;8.88;3.35;;;;;;;21.39;75.57;101169.47;4974432;28;20026;-50
2022/08/04 02:29:53;;;;;;;10.25;3.55;;;;;;;21.37;75.58;101166.94;4973695;28;20034;-51
2022/08/04 02:34:59;;;;;;;11.38;2.95;;;;;;;21.37;75.78;101158.72;5051690;23;20065;-74
2022/08/04 02:37:25;;;;;;;9.98;3.35;;;;;;;21.36;75.83;101164.47;4988930;28;20041;-75
2022/08/04 02:39:52;;;;;;;8.13;3.58;;;;;;;21.36;75.11;101161.72;4971282;28;20093;-75
2022/08/04 02:42:18;;;;;;;7.38;2.78;;;;;;;21.38;74.63;101165.91;4981720;28;20459;-76
2022/08/04 02:44:50;;;;;;;11.38;2.97;;;;;;;21.41;74.05;101162.69;4994579;28;20038;-75
2022/08/04 02:47:20;;;;;;;6.68;2.70;;;;;;;21.45;74.10;101163.81;4979774;28;20029;-75
2022/08/04 02:49:46;;;;;;;11.82;2.70;;;;;;;21.51;73.70;101156.53;4980878;28;20054;-76
2022/08/04 02:52:12;;;;;;;5.53;2.40;;;;;;;21.52;74.12;101168.34;4998146;28;20068;-75
2022/08/04 02:54:39;;;;;;;6.05;2.40;;;;;;;21.47;74.32;101164.41;4978808;28;20025;-75
2022/08/04 02:57:08;;;;;;;10.57;2.87;;;;;;;21.42;74.41;101167.06;5000092;28;20425;-75
2022/08/04 02:59:53;;;;;;;8.77;3.17;;;;;;;21.42;74.81;101158.84;4982322;28;20296;-75
2022/08/04 03:02:26;;;;;;;7.22;2.60;;;;;;;21.41;74.85;101162.69;5017210;28;20049;-75
2022/08/04 03:05:04;;;;;;;7.95;2.78;;;;;;;21.43;74.91;101155.06;4980117;28;20026;-75
2022/08/04 03:08:18;;;;;;;12.32;2.70;;;;;;;21.44;75.07;101162.19;4981602;28;20030;-75
2022/08/04 03:10:58;;;;;;;11.20;2.58;;;;;;;21.47;75.33;101155.38;4968576;28;20651;-75
2022/08/04 03:13:56;;;;;;;7.93;2.60;;;;;;;21.44;75.40;101155.88;5012480;28;20038;-75
2022/08/04 03:16:46;;;;;;;5.93;2.40;;;;;;;21.43;75.84;101148.72;5016474;28;20103;-75
2022/08/04 03:19:17;;;;;;;11.85;3.20;;;;;;;21.43;76.20;101148.72;5016726;28;20033;-74
2022/08/04 03:22:11;;;;;;;7.95;2.63;;;;;;;21.40;76.21;101155.53;5017366;28;20030;-74
2022/08/04 03:24:55;;;;;;;6.68;2.42;;;;;;;21.38;76.48;101145.88;5002106;28;20482;-75
2022/08/04 03:27:41;;;;;;;18.00;2.47;;;;;;;21.39;76.97;101150.31;4996924;28;20607;-74
2022/08/04 03:30:19;;;;;;;9.07;2.40;;;;;;;21.37;77.05;101150.50;5007369;28;20049;-75
2022/08/04 03:33:03;;;;;;;6.47;2.45;;;;;;;21.39;77.19;101150.31;5017275;28;20109;-75
2022/08/04 03:35:56;;;;;;;8.98;2.05;;;;;;;21.38;77.20;101152.22;5019693;28;20344;-74
2022/08/04 03:38:50;;;;;;;10.63;2.30;;;;;;;21.38;77.31;101148.63;5034540;28;20388;-75
2022/08/04 03:41:36;;;;;;;15.85;2.72;;;;;;;21.35;77.76;101147.19;4991116;28;20026;-75
2022/08/04 03:44:23;;;;;;;11.47;2.67;;;;;;;21.35;77.79;101146.34;4980335;28;20129;-74
2022/08/04 03:47:04;;;;;;;10.85;2.28;;;;;;;21.34;78.12;101140.06;5034728;28;20059;-74
2022/08/04 03:49:35;;;;;;;7.97;2.08;;;;;;;21.34;78.19;101144.72;5028607;28;20430;-74
2022/08/04 03:56:01;;;;;;;12.32;2.60;;;;;;;21.30;78.93;101136.16;4999482;28;20409;-75
2022/08/04 03:58:56;;;;;;;9.02;3.08;;;;;;;21.30;78.87;101143.53;5033089;28;20125;-74
2022/08/04 04:01:52;;;;;;;10.15;2.17;;;;;;;21.30;79.02;101135.31;4990766;28;20061;-74
2022/08/04 04:04:41;;;;;;;9.75;2.30;;;;;;;21.30;79.27;101132.56;5002319;28;20144;-74
2022/08/04 04:07:21;;;;;;;12.20;2.20;;;;;;;21.28;79.23;101141.06;5024233;28;20377;-75
2022/08/04 04:10:08;;;;;;;9.13;2.80;;;;;;;21.28;79.50;101135.56;4999394;28;20025;-75
2022/08/04 04:13:01;;;;;;;7.38;2.85;;;;;;;21.27;79.91;101129.28;5013214;28;20030;-74
2022/08/04 04:16:07;;;;;;;7.50;2.67;;;;;;;21.26;80.45;101137.72;4996359;28;20451;-74
2022/08/04 04:18:58;;;;;;;5.35;1.92;;;;;;;21.24;80.42;101135.22;4955974;28;20701;-74
2022/08/04 04:21:28;;;;;;;10.82;2.22;;;;;;;21.22;80.58;101144.75;5034331;28;20054;-75
2022/08/04 04:24:02;;;;;;;9.07;2.58;;;;;;;21.22;80.72;101142.88;5017882;28;20065;-78
2022/08/04 04:26:43;;;;;;;12.57;2.55;;;;;;;21.18;81.21;101141.69;5032916;28;20045;-77
2022/08/04 04:29:27;;;;;;;8.35;2.35;;;;;;;21.22;81.35;101150.22;4988361;28;20030;-75
2022/08/04 04:32:03;;;;;;;9.32;2.33;;;;;;;21.17;81.98;101155.59;5019707;28;20541;-75
2022/08/04 04:34:52;;;;;;;14.38;2.70;;;;;;;21.16;82.25;101148.47;5003328;28;20050;-75
2022/08/04 04:37:44;;;;;;;10.73;2.30;;;;;;;21.16;82.30;101143.81;5000412;28;20052;-75
2022/08/04 04:40:33;;;;;;;13.13;2.55;;;;;;;21.14;82.73;101153.34;5011991;28;20092;-76
2022/08/04 04:43:01;;;;;;;7.18;2.92;;;;;;;21.11;83.01;101143.72;5017893;28;20034;-75
2022/08/04 04:45:33;;;;;;;9.52;2.33;;;;;;;21.13;83.51;101146.22;5022395;28;20144;-76
2022/08/04 04:48:26;;;;;;;5.95;2.10;;;;;;;21.15;83.77;101142.19;5008845;28;20034;-76
2022/08/04 04:51:10;;;;;;;12.50;2.67;;;;;;;21.16;83.79;101148.47;5019391;28;20033;-75
2022/08/04 04:53:46;;;;;;;9.38;2.60;;;;;;;21.18;83.82;101146.34;5022612;28;20061;-75
2022/08/04 04:56:18;;;;;;;16.45;2.72;;;;;;;21.18;83.85;101141.69;5014677;28;20057;-75
2022/08/04 04:58:43;;;;;;;6.32;2.35;;;;;;;21.21;83.93;101146.66;4994728;28;20064;-75
2022/08/04 05:01:40;;;;;;;10.35;2.25;;;;;;;21.23;83.49;101139.03;5011260;28;20053;-75
2022/08/04 05:04:56;;;;;;;10.40;2.90;;;;;;;21.18;84.02;101155.38;5011583;28;20121;-75
2022/08/04 05:07:43;;;;;;;8.15;2.42;;;;;;;21.16;84.27;101160.25;4978337;28;20072;-75
2022/08/04 05:10:33;;;;;;;12.52;2.38;;;;;;;21.17;84.32;101156.47;4993090;28;20092;-75
2022/08/04 05:13:16;;;;;;;11.73;2.30;;;;;;;21.17;84.76;101158.34;4993465;28;20375;-75
2022/08/04 05:15:45;;;;;;;8.27;2.38;;;;;;;21.15;84.85;101164.06;4993668;28;20532;-75
2022/08/04 05:18:17;;;;;;;11.90;2.30;;;;;;;21.15;84.89;101164.06;4994144;28;20057;-75
2022/08/04 05:20:51;;;;;;;12.77;2.75;;;;;;;21.16;85.10;101168.47;4993800;28;20112;-76
2022/08/04 05:23:25;;;;;;;13.23;2.58;;;;;;;21.17;85.01;101170.16;4994039;28;20031;-75
2022/08/04 05:26:07;;;;;;;12.38;3.17;;;;;;;21.18;85.12;101174.53;4994970;28;20521;-75
2022/08/04 05:29:10;;;;;;;13.40;2.20;;;;;;;21.20;84.80;101174.28;5012926;28;20057;-76
2022/08/04 05:31:39;;;;;;;10.18;2.38;;;;;;;21.17;84.90;101172.88;4959947;29;20058;-77
2022/08/04 05:34:21;;;;;;;11.05;2.47;;;;;;;21.18;84.98;101182.75;4982047;28;20466;-75
2022/08/04 05:36:48;;;;;;;14.88;2.50;;;;;;;21.18;85.14;101174.53;4993831;28;20030;-75
2022/08/04 05:39:25;;;;;;;9.27;2.97;;;;;;;21.15;84.99;101177.75;4994282;28;20433;-75
2022/08/04 05:41:51;;;;;;;8.65;2.38;;;;;;;21.15;85.22;101185.97;4993732;28;20038;-75
2022/08/04 05:44:18;;;;;;;9.32;2.90;;;;;;;21.15;85.09;101177.75;4996425;28;20033;-76
2022/08/04 05:46:46;;;;;;;8.13;2.50;;;;;;;21.17;85.45;101182.97;5012879;28;20026;-74
2022/08/04 05:49:11;;;;;;;11.18;3.00;;;;;;;21.17;85.39;101178.34;5013405;28;20033;-76
2022/08/04 05:51:37;;;;;;;13.57;2.50;;;;;;;21.23;84.72;101182.84;5013381;28;20033;-75
2022/08/04 05:54:03;;;;;;;11.05;2.47;;;;;;;21.22;84.20;101186.66;4996497;28;20101;-74
2022/08/04 05:56:32;;;;;;;10.35;2.58;;;;;;;21.27;83.83;101178.56;4995378;28;20026;-75
2022/08/04 05:58:58;;;;;;;13.32;3.00;;;;;;;21.33;83.30;101178.63;4995238;28;20492;-75
2022/08/04 06:01:24;;;;;;;8.57;3.28;;;;;;;21.37;82.70;101171.59;5012685;28;20033;-74
2022/08/04 06:03:50;;;;;;;11.25;2.58;;;;;;;21.43;82.20;101178.84;5012432;28;20567;-75
2022/08/04 06:06:16;;;;;;;10.57;2.72;;;;;;;21.56;82.01;101181.25;5012984;28;20030;-76
2022/08/04 06:08:42;;;;;;;14.70;2.95;;;;;;;21.75;80.89;101173.66;4996433;28;20038;-74
2022/08/04 06:11:08;;;;;;;17.63;3.13;;;;;;;22.18;79.66;101182.28;5013122;28;20509;-74
2022/08/04 06:13:42;;;;;;;8.88;2.60;;;;;;;22.71;77.03;101183.59;5015205;28;20046;-75
2022/08/04 06:16:07;;;;;;;11.38;2.17;;;;;;;23.38;73.78;101191.56;4995646;28;20041;-75
2022/08/04 06:18:35;;;;;;;10.98;2.70;;;;;;;23.86;69.89;101187.09;4995591;28;20026;-75
2022/08/04 06:21:01;;;;;;;11.52;2.28;;;;;;;24.78;67.64;101194.28;4994526;28;20117;-75
2022/08/04 06:23:29;;;;;;;15.05;2.35;;;;;;;25.52;63.51;101194.00;4994200;28;20065;-76
2022/08/04 06:25:57;;;;;;;12.48;2.50;;;;;;;26.03;61.49;101185.75;5013732;28;20037;-76
2022/08/04 06:28:23;;;;;;;13.40;2.35;;;;;;;26.58;58.47;101191.47;4997845;28;20037;-76
2022/08/04 06:30:49;;;;;;;8.38;2.47;;;;;;;26.72;57.99;101186.16;5013925;28;20140;-76
2022/08/04 06:33:32;;;;;;;11.07;2.30;;;;;;;26.96;56.05;101188.28;5009073;28;20393;-75
2022/08/04 06:35:58;;;;;;;11.88;2.28;;;;;;;26.80;56.14;101187.53;5014614;28;20045;-76
2022/08/04 06:38:25;;;;;;;11.13;2.23;;;;;;;26.77;56.58;101188.91;4997732;28;20030;-75
2022/08/04 06:40:52;;;;;;;6.32;2.28;;;;;;;27.23;54.21;101188.72;5016072;28;20474;-75
2022/08/04 06:43:18;;;;;;;11.55;2.33;;;;;;;27.38;52.80;101187.78;4998132;28;20517;-74
2022/08/04 06:45:43;;;;;;;8.98;2.72;;;;;;;27.87;50.62;101197.16;4994981;28;20030;-74
2022/08/04 06:48:11;;;;;;;10.57;2.85;;;;;;;28.06;50.45;101198.06;4995479;28;20046;-75
2022/08/04 06:50:38;;;;;;;11.20;2.40;;;;;;;28.37;49.12;101198.59;5014703;28;20041;-76
2022/08/04 06:53:03;;;;;;;7.03;2.20;;;;;;;28.69;48.68;101205.47;5000254;28;20044;-78
2022/08/04 06:55:30;;;;;;;9.07;2.63;;;;;;;29.06;47.64;101210.28;5021749;28;20018;-78
2022/08/04 06:57:56;;;;;;;11.15;2.10;;;;;;;29.06;46.45;101207.50;5021001;28;20026;-77
2022/08/04 07:00:23;;;;;;;7.38;2.35;;;;;;;28.76;46.53;101216.19;5006851;28;20080;-78
2022/08/04 07:02:51;;;;;;;12.75;2.53;;;;;;;28.59;46.19;101217.47;5008655;28;20030;-77
2022/08/04 07:05:17;;;;;;;10.18;2.88;;;;;;;28.06;48.11;101211.91;5004853;28;20177;-77
2022/08/04 07:07:43;;;;;;;13.00;2.40;;;;;;;27.96;48.15;101212.00;4997538;28;20048;-77
2022/08/04 07:10:09;;;;;;;7.72;2.13;;;;;;;28.18;48.28;101222.59;4996323;28;20022;-77
2022/08/04 07:12:36;;;;;;;9.57;2.40;;;;;;;28.73;46.63;101228.69;5016029;28;20030;-75
2022/08/04 07:15:05;;;;;;;7.80;2.47;;;;;;;28.96;45.33;101227.00;5015729;28;20030;-75
2022/08/04 07:17:31;;;;;;;10.43;2.40;;;;;;;29.11;45.18;101239.88;5004836;28;20038;-74
2022/08/04 07:19:56;;;;;;;8.90;2.35;;;;;;;28.85;45.60;101237.41;4991064;28;20024;-76
2022/08/04 07:22:25;;;;;;;15.07;2.50;;;;;;;28.70;46.08;101239.53;5020604;28;20060;-76
2022/08/04 07:24:53;;;;;;;9.85;2.65;;;;;;;28.54;47.60;101247.16;5016973;28;20036;-76
2022/08/04 07:27:19;;;;;;;9.68;2.50;;;;;;;28.49;48.03;101244.44;5014615;28;20022;-76
2022/08/04 07:29:45;;;;;;;14.98;2.63;;;;;;;28.40;48.66;101252.53;4996179;28;20030;-75
2022/08/04 07:32:12;;;;;;;10.23;2.60;;;;;;;28.35;49.33;101245.09;4983526;28;20169;-76
2022/08/04 07:34:38;;;;;;;11.50;2.92;;;;;;;28.72;47.84;101248.38;4995518;28;20065;-75
2022/08/04 07:37:03;;;;;;;47.85;3.33;;;;;;;29.30;46.97;101249.03;4996418;28;20068;-74
2022/08/04 07:39:30;;;;;;;23.10;2.80;;;;;;;29.67;46.15;101257.69;4995423;28;20042;-74
2022/08/04 07:42:00;;;;;;;37.97;3.17;;;;;;;30.06;44.40;101248.19;5012580;28;20033;-74
2022/08/04 07:44:26;;;;;;;18.13;2.83;;;;;;;30.17;43.63;101255.22;4996321;28;20028;-74
2022/08/04 07:46:52;;;;;;;8.40;2.30;;;;;;;30.24;43.78;101257.66;5013922;28;20034;-74
2022/08/04 07:49:19;;;;;;;10.33;2.63;;;;;;;30.92;42.35;101270.00;4994762;28;20440;-74
2022/08/04 07:51:44;;;;;;;;;;;;;;;30.90;41.62;101261.16;4995320;28;20033;-75
2022/08/04 07:54:09;;;;;;;10.93;2.63;;;;;;;31.14;41.27;101260.91;4992707;28;19913;-76
2022/08/04 07:56:37;;;;;;;8.83;2.13;;;;;;;31.30;40.79;101258.63;4993484;28;20521;-75
2022/08/04 07:59:03;;;;;;;13.05;2.58;;;;;;;32.05;39.31;101266.38;5013265;28;20282;-75
2022/08/04 08:01:29;;;;;;;14.80;3.05;;;;;;;32.36;38.00;101265.56;5012451;28;20112;-74
2022/08/04 08:03:56;;;;;;;11.50;2.80;;;;;;;32.44;36.85;101267.59;4994721;28;20061;-73
2022/08/04 08:06:21;;;;;;;;;;;;;;;32.71;36.62;101263.00;5013726;28;20034;-74
2022/08/04 08:08:47;;;;;;;9.45;2.63;;;;;;;32.89;36.05;101270.28;4993682;28;20346;-75
2022/08/04 08:11:12;;;;;;;10.07;2.50;;;;;;;33.38;35.28;101268.25;4995680;28;20064;-75
2022/08/04 08:13:38;;;;;;;11.73;2.80;;;;;;;33.61;35.09;101263.41;4995328;28;20489;-75
2022/08/04 08:16:04;;;;;;;8.33;3.07;;;;;;;33.78;33.35;101267.31;4995649;28;20022;-74
2022/08/04 08:18:30;;;;;;;10.48;3.03;;;;;;;33.69;34.03;101275.72;4994871;28;20036;-74
2022/08/04 08:20:56;;;;;;;11.95;3.30;;;;;;;33.40;33.05;101268.75;4993845;28;20045;-74
2022/08/04 08:23:22;;;;;;;12.60;3.10;;;;;;;33.29;33.10;101266.63;4995158;28;20029;-75
2022/08/04 08:25:47;;;;;;;7.57;2.60;;;;;;;33.22;33.92;101267.09;4996545;28;20250;-74
2022/08/04 08:28:14;;;;;;;12.97;3.63;;;;;;;32.79;34.44;101264.97;5007434;28;20030;-74
2022/08/04 08:30:39;;;;;;;11.10;2.88;;;;;;;33.25;33.46;101269.22;5012462;28;20412;-74
2022/08/04 08:33:07;;;;;;;9.07;2.90;;;;;;;32.56;33.68;101262.25;5010234;28;20080;-73
2022/08/04 08:35:49;;;;;;;10.57;3.03;;;;;;;32.33;34.16;101252.28;5012584;28;20061;-74
2022/08/04 08:38:17;;;;;;;12.13;3.05;;;;;;;32.43;34.21;101260.34;4996781;28;20034;-75
2022/08/04 08:41:10;;;;;;;10.98;3.05;;;;;;;32.31;34.36;101262.94;4993702;28;20547;-74
2022/08/04 08:43:55;;;;;;;9.05;3.00;;;;;;;32.79;34.48;101262.19;5012142;28;20037;-75
2022/08/04 08:46:34;;;;;;;10.10;2.95;;;;;;;33.13;31.57;101260.69;4997502;28;20037;-75
2022/08/04 08:49:37;;;;;;;8.70;2.90;;;;;;;32.24;34.36;101265.34;5012142;28;20036;-74
2022/08/04 08:52:16;;;;;;;10.35;2.90;;;;;;;31.66;34.54;101273.41;5012548;28;20048;-75
2022/08/04 08:55:11;;;;;;;16.52;6.00;;;;;;;31.68;35.43;101273.91;4994696;28;20066;-74
2022/08/04 08:57:45;;;;;;;13.60;2.63;;;;;;;32.35;34.43;101269.50;4982231;28;20078;-74
2022/08/04 09:00:15;;;;;;;10.40;2.72;;;;;;;32.13;34.32;101281.50;5011249;28;20029;-75
2022/08/04 09:02:55;;;;;;;8.70;2.85;;;;;;;31.54;34.89;101275.91;5011500;28;20037;-74
2022/08/04 09:05:45;;;;;;;9.85;2.95;;;;;;;32.11;33.80;101264.28;5011690;28;20470;-75
2022/08/04 09:08:25;;;;;;;8.93;2.28;;;;;;;32.63;32.29;101277.72;5010343;28;20028;-75
2022/08/04 09:10:58;;;;;;;10.25;2.47;;;;;;;32.61;33.57;101274.41;4993694;28;20066;-76
2022/08/04 09:13:30;;;;;;;11.93;2.65;;;;;;;32.73;32.20;101272.66;4993734;28;20409;-75
2022/08/04 09:16:03;;;;;;;9.32;2.70;;;;;;;31.97;33.91;101272.69;4994358;28;20461;-75
2022/08/04 09:18:36;;;;;;;8.05;2.42;;;;;;;31.82;33.84;101282.19;5013215;28;20022;-74
2022/08/04 09:21:37;;;;;;;13.02;3.10;;;;;;;30.86;34.95;101287.91;4993858;28;20112;-75
2022/08/04 09:24:24;;;;;;;9.63;2.97;;;;;;;30.06;37.06;101282.31;4992652;28;20097;-76
2022/08/04 09:26:56;;;;;;;10.55;2.72;;;;;;;29.50;37.72;101286.75;5009386;28;20040;-74
2022/08/04 09:29:36;;;;;;;13.88;2.97;;;;;;;28.91;39.59;101289.97;4993377;28;20094;-74
2022/08/04 09:32:14;;;;;;;12.38;2.70;;;;;;;28.52;40.09;101293.72;5010900;28;20069;-74
2022/08/04 09:34:45;;;;;;;12.88;2.88;;;;;;;28.29;40.86;101289.75;4992696;28;20057;-74
2022/08/04 09:37:26;;;;;;;17.42;3.40;;;;;;;28.04;40.86;101299.91;5009884;28;20034;-74
2022/08/04 09:40:13;;;;;;;11.77;2.85;;;;;;;28.12;40.67;101301.22;4993528;28;20036;-74
2022/08/04 09:43:18;;;;;;;15.32;3.85;;;;;;;28.04;40.79;101304.63;4993007;28;20045;-74
2022/08/04 09:46:01;;;;;;;14.77;3.03;;;;;;;27.87;41.83;101305.84;4921166;28;20050;-74
2022/08/04 09:48:30;;;;;;;15.02;2.58;;;;;;;27.91;42.13;101314.38;5008267;28;20588;-75
2022/08/04 09:50:58;;;;;;;11.38;3.08;;;;;;;28.04;42.05;101299.06;4977397;28;20494;-74
2022/08/04 09:53:40;;;;;;;13.32;2.83;;;;;;;28.28;42.46;101313.84;5015936;28;20034;-74
2022/08/04 09:56:15;;;;;;;14.32;3.33;;;;;;;28.60;41.23;101318.84;4993235;28;20030;-74
2022/08/04 09:59:08;;;;;;;12.88;3.45;;;;;;;28.43;41.49;101332.25;4994351;28;20026;-74
2022/08/04 10:01:35;;;;;;;13.63;3.42;;;;;;;28.35;42.09;101333.69;4990533;28;20053;-74
2022/08/04 10:04:03;;;;;;;17.58;3.47;;;;;;;28.18;42.40;101334.13;4976940;28;20413;-75
2022/08/04 10:06:38;;;;;;;14.52;3.63;;;;;;;28.29;40.62;101334.03;4991005;28;20180;-75
2022/08/04 10:09:20;;;;;;;12.63;3.22;;;;;;;28.24;40.80;101330.19;4989259;28;20030;-74
2022/08/04 10:12:00;;;;;;;14.23;3.17;;;;;;;28.34;40.54;101331.22;4976129;28;20030;-77
2022/08/04 10:14:44;;;;;;;22.92;3.53;;;;;;;28.34;40.04;101332.06;4988542;28;20030;-74
2022/08/04 10:17:25;;;;;;;16.27;3.50;;;;;;;28.71;39.39;101329.81;5009400;28;20038;-75
2022/08/04 10:20:30;;;;;;;15.30;2.95;;;;;;;29.01;37.76;101329.47;4991283;28;20042;-75
2022/08/04 10:23:08;;;;;;;11.82;2.60;;;;;;;28.66;38.11;101328.75;4986809;28;20556;-75
2022/08/04 10:25:55;;;;;;;21.85;3.55;;;;;;;28.44;38.28;101328.41;4989557;28;20025;-75
2022/08/04 10:28:22;;;;;;;13.55;2.83;;;;;;;28.42;39.11;101333.38;5010483;28;20042;-76
2022/08/04 10:30:53;;;;;;;15.05;2.85;;;;;;;28.86;38.33;101330.50;4995109;28;20080;-75
2022/08/04 10:33:28;;;;;;;9.23;3.30;;;;;;;29.44;37.30;101334.28;4992594;28;20247;-75
2022/08/04 10:36:00;;;;;;;13.05;3.33;;;;;;;29.86;36.71;101340.91;4992885;28;20084;-75
2022/08/04 10:38:31;;;;;;;8.25;2.85;;;;;;;30.59;34.44;101339.50;4970916;28;20034;-76
2022/08/04 10:41:05;;;;;;;18.58;3.15;;;;;;;31.20;34.66;101338.38;4998528;28;20821;-74
2022/08/04 10:43:34;;;;;;;18.38;2.80;;;;;;;31.81;32.94;101341.81;5000214;28;20049;-76
2022/08/04 10:46:25;;;;;;;11.70;2.67;;;;;;;32.72;30.64;101340.69;5012082;28;20545;-75
2022/08/04 10:49:02;;;;;;;10.82;2.45;;;;;;;33.24;30.20;101340.13;5021271;28;20088;-76
2022/08/04 10:52:07;;;;;;;10.10;2.72;;;;;;;33.32;30.65;101341.28;4989560;28;20033;-76
2022/08/04 10:54:48;;;;;;;15.73;2.78;;;;;;;33.54;30.38;101345.97;4994202;28;20103;-75
2022/08/04 10:57:32;;;;;;;11.10;2.67;;;;;;;33.83;29.48;101346.16;5012037;28;20026;-76
2022/08/04 11:00:03;;;;;;;7.95;2.50;;;;;;;34.00;28.73;101341.75;4992938;28;20180;-74
2022/08/04 11:02:42;;;;;;;18.60;2.80;;;;;;;34.01;29.09;101344.19;5011606;28;20059;-74
2022/08/04 11:05:28;;;;;;;8.00;2.15;;;;;;;34.33;28.94;101338.44;4993259;28;20030;-74
2022/08/04 11:07:56;;;;;;;;;;;;;;;34.38;28.03;101343.84;4993406;28;20239;-74
2022/08/04 11:10:22;;;;;;;7.22;2.08;;;;;;;34.59;28.41;101342.03;4992239;28;20331;-74
2022/08/04 11:12:54;;;;;;;11.75;2.65;;;;;;;34.27;27.96;101330.22;4994003;28;20037;-75
2022/08/04 11:15:23;;;;;;;9.20;2.55;;;;;;;34.49;28.09;101342.34;4994166;28;20033;-75
2022/08/04 11:18:04;;;;;;;7.65;2.13;;;;;;;34.34;28.63;101338.13;4996532;28;20548;-75
2022/08/04 11:20:36;;;;;;;10.30;2.05;;;;;;;34.46;28.44;101341.03;4977773;28;20050;-75
2022/08/04 11:23:13;;;;;;;6.30;1.92;;;;;;;34.65;28.54;101346.31;4978844;28;20037;-75
2022/08/04 11:25:38;;;;;;;11.25;2.17;;;;;;;34.81;27.95;101359.72;4993509;28;20018;-75
2022/08/04 11:28:12;;;;;;;11.47;1.97;;;;;;;34.79;27.52;101356.47;5006223;28;20251;-75
2022/08/04 11:30:57;;;;;;;9.82;2.33;;;;;;;34.09;28.29;101357.34;4994621;28;20655;-74
2022/08/04 11:33:28;;;;;;;8.50;1.92;;;;;;;33.29;30.19;101364.25;4989666;28;20046;-75
2022/08/04 11:36:02;;;;;;;6.45;1.73;;;;;;;33.14;29.65;101360.75;5011523;28;20026;-75
2022/08/04 11:38:49;;;;;;;6.15;2.40;;;;;;;32.81;30.21;101357.47;4995843;28;20025;-75
2022/08/04 11:41:19;;;;;;;5.50;2.05;;;;;;;32.82;30.91;101358.31;4996601;28;20434;-74
2022/08/04 11:43:57;;;;;;;8.68;2.30;;;;;;;32.89;31.42;101369.78;4994985;28;20067;-74
2022/08/04 11:46:38;;;;;;;10.50;2.50;;;;;;;33.21;30.23;101365.88;5013024;28;20362;-73
2022/08/04 11:49:30;;;;;;;9.80;2.15;;;;;;;33.44;29.79;101369.38;4975663;28;20468;-74
2022/08/04 11:51:57;;;;;;;8.60;2.30;;;;;;;33.36;29.90;101371.03;4993254;28;20030;-73
2022/08/04 11:54:23;;;;;;;10.05;2.67;;;;;;;33.50;29.24;101372.84;4994731;28;20032;-74
2022/08/04 11:56:48;;;;;;;7.30;2.33;;;;;;;33.61;28.73;101375.03;5013088;28;20120;-74
2022/08/04 11:59:14;;;;;;;16.97;3.17;;;;;;;33.39;29.08;101378.75;4995393;28;20056;-74
2022/08/04 12:02:01;;;;;;;7.47;2.20;;;;;;;33.34;29.15;101378.88;5012686;28;20022;-74
2022/08/04 12:04:46;;;;;;;7.35;2.60;;;;;;;33.30;29.72;101369.50;5012603;28;20034;-75